createdAt,value
2022-11-02T00:00:34.606Z,19.40
2022-11-02T00:03:02.776Z,19.20
2022-11-02T00:05:31.146Z,19.20
2022-11-02T00:07:59.204Z,19.30
2022-11-02T00:10:27.078Z,19.40
2022-11-02T00:12:54.909Z,19.20
2022-11-02T00:15:25.285Z,19.30
2022-11-02T00:17:56.908Z,19.30
2022-11-02T00:20:26.238Z,19.40
2022-11-02T00:22:57.043Z,19.40
2022-11-02T00:25:26.821Z,19.40
2022-11-02T00:27:54.757Z,19.50
2022-11-02T00:30:22.862Z,19.50
2022-11-02T00:32:51.922Z,19.40
2022-11-02T00:35:21.126Z,19.40
2022-11-02T00:37:48.985Z,19.40
2022-11-02T00:40:17.062Z,19.40
2022-11-02T00:42:44.970Z,19.50
2022-11-02T00:45:12.873Z,19.60
2022-11-02T00:47:40.718Z,19.60
2022-11-02T00:50:09.722Z,19.30
2022-11-02T00:52:42.266Z,19.40
2022-11-02T00:55:11.905Z,19.40
2022-11-02T00:57:40.557Z,19.30
2022-11-02T01:00:10.502Z,19.30
2022-11-02T01:02:38.907Z,19.40
2022-11-02T01:05:08.298Z,19.50
2022-11-02T01:07:37.507Z,19.40
2022-11-02T01:10:07.321Z,19.40
2022-11-02T01:12:37.322Z,19.50
2022-11-02T01:15:06.704Z,19.40
2022-11-02T01:17:34.617Z,19.50
2022-11-02T01:20:02.733Z,19.50
2022-11-02T01:22:30.707Z,19.50
2022-11-02T01:24:58.572Z,19.40
2022-11-02T01:27:27.801Z,19.40
2022-11-02T01:29:55.729Z,19.40
2022-11-02T01:32:23.601Z,19.40
2022-11-02T01:34:51.539Z,19.40
2022-11-02T01:37:19.398Z,19.40
2022-11-02T01:39:47.265Z,19.40
2022-11-02T01:42:19.469Z,19.30
2022-11-02T01:44:48.785Z,19.30
2022-11-02T01:47:21.368Z,19.30
2022-11-02T01:49:52.774Z,19.30
2022-11-02T01:52:23.566Z,19.40
2022-11-02T01:54:55.653Z,19.40
2022-11-02T01:57:24.214Z,19.40
2022-11-02T01:59:58.202Z,19.40
2022-11-02T02:02:28.055Z,19.40
2022-11-02T02:05:02.958Z,19.40
2022-11-02T02:07:32.384Z,19.40
2022-11-02T02:10:01.484Z,19.40
2022-11-02T02:12:30.250Z,19.40
2022-11-02T02:15:00.605Z,19.40
2022-11-02T02:17:38.679Z,19.40
2022-11-02T02:20:12.851Z,19.40
2022-11-02T02:23:20.236Z,19.30
2022-11-02T02:26:24.465Z,19.40
2022-11-02T02:28:56.796Z,19.40
2022-11-02T02:31:32.669Z,19.40
2022-11-02T02:34:05.248Z,19.40
2022-11-02T02:36:37.381Z,19.30
2022-11-02T02:39:11.316Z,19.40
2022-11-02T02:41:41.145Z,19.30
2022-11-02T02:44:13.990Z,19.30
2022-11-02T02:46:46.669Z,19.30
2022-11-02T02:49:19.363Z,19.30
2022-11-02T02:51:48.705Z,19.30
2022-11-02T02:54:20.150Z,19.30
2022-11-02T02:56:53.066Z,19.30
2022-11-02T02:59:25.767Z,19.30
2022-11-02T03:01:55.482Z,19.30
2022-11-02T03:04:23.664Z,19.30
2022-11-02T03:06:55.104Z,19.30
2022-11-02T03:09:30.485Z,19.30
2022-11-02T03:12:10.490Z,19.30
2022-11-02T03:14:49.591Z,19.30
2022-11-02T03:17:20.612Z,19.30
2022-11-02T03:19:56.065Z,19.40
2022-11-02T03:22:31.224Z,19.30
2022-11-02T03:25:04.785Z,19.30
2022-11-02T03:27:39.619Z,19.30
2022-11-02T03:30:14.321Z,19.30
2022-11-02T03:32:50.906Z,19.30
2022-11-02T03:35:23.701Z,19.30
2022-11-02T03:37:57.102Z,19.30
2022-11-02T03:40:29.909Z,19.30
2022-11-02T03:42:58.936Z,19.20
2022-11-02T03:45:36.517Z,19.20
2022-11-02T03:48:08.618Z,19.20
2022-11-02T03:50:39.502Z,19.20
2022-11-02T03:53:11.549Z,19.20
2022-11-02T03:55:44.078Z,19.10
2022-11-02T03:58:13.134Z,19.10
2022-11-02T04:00:49.322Z,19.10
2022-11-02T04:03:18.775Z,19.10
2022-11-02T04:05:46.753Z,19.10
2022-11-02T04:08:24.452Z,19.10
2022-11-02T04:11:12.216Z,19.10
2022-11-02T04:13:57.530Z,19.10
2022-11-02T04:16:28.206Z,19.10
2022-11-02T04:19:14.572Z,19.10
2022-11-02T04:22:02.532Z,19.10
2022-11-02T04:24:47.785Z,19.00
2022-11-02T04:27:20.517Z,19.10
2022-11-02T04:29:48.898Z,19.10
2022-11-02T04:32:38.756Z,19.00
2022-11-02T04:35:06.975Z,19.00
2022-11-02T04:37:57.219Z,19.00
2022-11-02T04:40:25.129Z,19.00
2022-11-02T04:42:53.305Z,19.00
2022-11-02T04:45:21.609Z,19.00
2022-11-02T04:47:50.835Z,19.00
2022-11-02T04:50:18.854Z,19.00
2022-11-02T04:52:46.733Z,19.00
2022-11-02T04:55:14.630Z,19.00
2022-11-02T04:57:46.461Z,19.00
2022-11-02T05:00:15.649Z,18.90
2022-11-02T05:02:43.704Z,18.90
2022-11-02T05:05:13.001Z,18.90
2022-11-02T05:07:40.901Z,18.90
2022-11-02T05:10:09.713Z,18.80
2022-11-02T05:12:37.930Z,18.80
2022-11-02T05:15:06.624Z,18.60
2022-11-02T05:17:34.542Z,18.70
2022-11-02T05:20:02.680Z,18.70
2022-11-02T05:22:32.353Z,18.80
2022-11-02T05:25:00.231Z,18.80
2022-11-02T05:27:28.076Z,18.90
2022-11-02T05:29:55.917Z,19.00
2022-11-02T05:32:23.785Z,19.00
2022-11-02T05:34:51.651Z,19.10
2022-11-02T05:37:19.956Z,19.10
2022-11-02T05:39:50.477Z,19.20
2022-11-02T05:42:18.820Z,19.30
2022-11-02T05:44:46.663Z,19.30
2022-11-02T05:47:14.532Z,19.30
2022-11-02T05:49:42.393Z,19.30
2022-11-02T05:52:10.256Z,19.30
2022-11-02T05:54:38.109Z,19.40
2022-11-02T05:57:07.433Z,19.40
2022-11-02T05:59:35.425Z,19.40
2022-11-02T06:02:03.612Z,19.50
2022-11-02T06:04:31.517Z,19.50
2022-11-02T06:06:59.385Z,19.50
2022-11-02T06:09:27.624Z,19.60
2022-11-02T06:11:57.186Z,19.30
2022-11-02T06:14:26.616Z,19.30
2022-11-02T06:16:54.457Z,19.40
2022-11-02T06:19:22.297Z,19.40
2022-11-02T06:21:50.156Z,19.40
2022-11-02T06:24:18.332Z,19.40
2022-11-02T06:26:46.958Z,19.40
2022-11-02T06:29:14.987Z,19.50
2022-11-02T06:31:44.196Z,19.60
2022-11-02T06:34:12.073Z,19.60
2022-11-02T06:36:40.018Z,19.70
2022-11-02T06:39:07.840Z,19.70
2022-11-02T06:41:35.710Z,19.80
2022-11-02T06:44:03.703Z,19.80
2022-11-02T06:46:32.385Z,19.70
2022-11-02T06:49:01.817Z,19.70
2022-11-02T06:51:29.734Z,19.80
2022-11-02T06:53:57.590Z,19.70
2022-11-02T06:56:25.444Z,19.70
2022-11-02T06:58:53.348Z,19.80
2022-11-02T07:01:21.385Z,19.70
2022-11-02T07:03:49.306Z,19.80
2022-11-02T07:06:18.508Z,19.80
2022-11-02T07:08:46.390Z,19.70
2022-11-02T07:11:15.966Z,19.60
2022-11-02T07:13:44.480Z,19.50
2022-11-02T07:16:12.442Z,19.40
2022-11-02T07:18:40.849Z,19.30
2022-11-02T07:21:11.330Z,19.10
2022-11-02T07:23:40.625Z,19.00
2022-11-02T07:26:08.484Z,19.20
2022-11-02T07:28:38.152Z,19.20
2022-11-02T07:31:06.424Z,19.10
2022-11-02T07:33:34.290Z,19.20
2022-11-02T07:36:05.343Z,19.20
2022-11-02T07:38:33.223Z,19.20
2022-11-02T07:41:02.629Z,19.20
2022-11-02T07:43:30.521Z,19.20
2022-11-02T07:45:58.416Z,19.20
2022-11-02T07:48:26.277Z,19.30
2022-11-02T07:50:54.140Z,19.30
2022-11-02T07:53:22.268Z,19.40
2022-11-02T07:55:50.152Z,19.40
2022-11-02T07:58:19.410Z,19.40
2022-11-02T08:00:47.274Z,19.50
2022-11-02T08:03:15.662Z,19.30
2022-11-02T08:05:44.050Z,19.30
2022-11-02T08:08:14.062Z,19.40
2022-11-02T08:10:42.300Z,19.40
2022-11-02T08:13:10.626Z,19.40
2022-11-02T08:15:39.912Z,19.20
2022-11-02T08:18:10.534Z,19.30
2022-11-02T08:20:38.433Z,19.40
2022-11-02T08:23:07.534Z,19.30
2022-11-02T08:25:36.882Z,19.30
2022-11-02T08:28:06.104Z,19.40
2022-11-02T08:30:34.678Z,19.40
2022-11-02T08:33:08.447Z,18.90
2022-11-02T08:35:37.648Z,18.50
2022-11-02T08:38:06.757Z,18.00
2022-11-02T08:40:35.844Z,17.80
2022-11-02T08:43:05.512Z,17.70
2022-11-02T08:46:08.356Z,17.50
2022-11-02T08:48:24.731Z,17.30
2022-11-02T08:50:52.604Z,17.40
2022-11-02T08:53:20.520Z,17.30
2022-11-02T08:55:48.400Z,17.20
2022-11-02T08:58:16.301Z,17.40
2022-11-02T09:00:44.909Z,17.40
2022-11-02T09:03:14.338Z,17.40
2022-11-02T09:05:45.262Z,17.40
2022-11-02T09:08:14.662Z,17.30
2022-11-02T09:10:42.646Z,17.50
2022-11-02T09:13:13.467Z,17.30
2022-11-02T09:15:41.675Z,17.30
2022-11-02T09:18:10.162Z,17.20
2022-11-02T09:20:38.464Z,17.00
2022-11-02T09:23:07.669Z,16.80
2022-11-02T09:25:35.604Z,16.80
2022-11-02T09:28:04.263Z,17.00
2022-11-02T09:30:32.295Z,16.90
2022-11-02T09:33:01.985Z,16.90
2022-11-02T09:35:32.324Z,17.00
2022-11-02T09:38:00.301Z,16.80
2022-11-02T09:40:32.705Z,16.80
2022-11-02T09:43:07.856Z,16.70
2022-11-02T09:45:45.320Z,16.80
2022-11-02T09:48:22.166Z,16.90
2022-11-02T09:51:02.083Z,17.00
2022-11-02T09:53:38.754Z,17.00
2022-11-02T09:56:10.389Z,17.10
2022-11-02T09:58:41.262Z,17.00
2022-11-02T10:01:23.803Z,17.20
2022-11-02T10:04:06.191Z,17.20
2022-11-02T10:06:38.104Z,17.40
2022-11-02T10:09:10.389Z,17.40
2022-11-02T10:11:48.565Z,17.30
2022-11-02T10:14:21.257Z,17.30
2022-11-02T10:16:56.004Z,17.30
2022-11-02T10:19:27.763Z,17.50
2022-11-02T10:21:59.520Z,17.40
2022-11-02T10:24:34.382Z,17.50
2022-11-02T10:27:14.109Z,17.50
2022-11-02T10:29:49.600Z,17.50
2022-11-02T10:32:18.183Z,17.50
2022-11-02T10:34:58.741Z,17.50
2022-11-02T10:37:47.553Z,17.50
2022-11-02T10:40:25.569Z,17.50
2022-11-02T10:43:09.496Z,17.40
2022-11-02T10:46:09.876Z,17.50
2022-11-02T10:48:46.807Z,17.60
2022-11-02T10:51:16.208Z,17.50
2022-11-02T10:53:46.225Z,17.60
2022-11-02T10:56:18.116Z,17.60
2022-11-02T10:58:53.603Z,17.60
2022-11-02T11:01:21.557Z,17.70
2022-11-02T11:03:58.298Z,17.70
2022-11-02T11:06:28.630Z,17.80
2022-11-02T11:09:01.220Z,17.80
2022-11-02T11:11:31.998Z,17.80
2022-11-02T11:16:55.279Z,17.80
2022-11-02T11:22:23.373Z,18.00
2022-11-02T11:24:51.341Z,18.00
2022-11-02T11:27:20.496Z,17.90
2022-11-02T11:29:53.170Z,17.70
2022-11-02T11:32:28.816Z,17.70
2022-11-02T11:35:01.881Z,17.80
2022-11-02T11:37:30.265Z,17.80
2022-11-02T11:40:01.274Z,17.80
2022-11-02T11:42:33.129Z,17.80
2022-11-02T11:45:05.798Z,17.80
2022-11-02T11:47:37.484Z,17.90
2022-11-02T11:50:22.197Z,17.80
2022-11-02T11:53:11.757Z,17.90
2022-11-02T11:55:48.920Z,17.90
2022-11-02T11:58:21.779Z,17.90
2022-11-02T12:01:09.296Z,18.00
2022-11-02T12:03:53.684Z,18.00
2022-11-02T12:06:30.282Z,18.00
2022-11-02T12:09:07.337Z,18.10
2022-11-02T12:11:46.853Z,18.10
2022-11-02T12:14:38.582Z,18.20
2022-11-02T12:17:27.048Z,18.20
2022-11-02T12:20:14.549Z,18.30
2022-11-02T12:22:50.637Z,18.30
2022-11-02T12:25:28.687Z,18.40
2022-11-02T12:28:09.044Z,18.40
2022-11-02T12:30:49.782Z,18.50
2022-11-02T12:33:36.825Z,18.40
2022-11-02T12:36:13.678Z,18.40
2022-11-02T12:39:00.032Z,18.50
2022-11-02T12:41:38.999Z,18.40
2022-11-02T12:44:23.688Z,18.40
2022-11-02T12:47:00.811Z,18.60
2022-11-02T12:49:38.222Z,18.70
2022-11-02T12:52:15.237Z,18.80
2022-11-02T12:54:46.785Z,18.80
2022-11-02T12:57:17.971Z,18.90
2022-11-02T12:59:47.440Z,19.00
2022-11-02T13:02:20.010Z,18.90
2022-11-02T13:04:53.469Z,18.70
2022-11-02T13:07:26.359Z,18.70
2022-11-02T13:10:00.209Z,18.80
2022-11-02T13:12:28.835Z,18.70
2022-11-02T13:14:58.603Z,18.70
2022-11-02T13:17:32.201Z,18.70
2022-11-02T13:20:06.204Z,18.60
2022-11-02T13:22:39.102Z,18.60
2022-11-02T13:25:16.018Z,18.50
2022-11-02T13:27:49.764Z,18.40
2022-11-02T13:30:19.848Z,18.40
2022-11-02T13:32:53.509Z,18.50
2022-11-02T13:35:28.566Z,18.50
2022-11-02T13:38:04.606Z,18.60
2022-11-02T13:40:39.168Z,18.70
2022-11-02T13:43:35.284Z,18.60
2022-11-02T13:46:12.662Z,18.60
2022-11-02T13:48:50.069Z,18.70
2022-11-02T13:51:27.202Z,18.70
2022-11-02T13:53:59.945Z,18.80
2022-11-02T13:56:30.142Z,18.80
2022-11-02T13:59:04.606Z,18.90
2022-11-02T14:01:36.382Z,19.10
2022-11-02T14:04:07.810Z,19.20
2022-11-02T14:06:49.539Z,19.30
2022-11-02T14:09:27.548Z,19.40
2022-11-02T14:12:13.870Z,19.40
2022-11-02T14:14:41.869Z,19.60
2022-11-02T14:17:14.287Z,19.90
2022-11-02T14:19:56.320Z,19.90
2022-11-02T14:22:25.713Z,20.00
2022-11-02T14:25:20.580Z,20.00
2022-11-02T14:27:48.556Z,20.10
2022-11-02T14:30:44.029Z,20.10
2022-11-02T14:33:38.873Z,20.10
2022-11-02T14:36:11.234Z,20.10
2022-11-02T14:38:51.600Z,20.20
2022-11-02T14:41:44.411Z,20.40
2022-11-02T14:44:36.226Z,20.60
2022-11-02T14:47:08.550Z,20.60
2022-11-02T14:49:40.916Z,20.70
2022-11-02T14:52:21.918Z,20.70
2022-11-02T14:54:54.571Z,20.70
2022-11-02T14:57:27.401Z,20.60
2022-11-02T14:59:57.688Z,20.60
2022-11-02T15:02:30.887Z,20.70
2022-11-02T15:05:01.052Z,20.70
2022-11-02T15:07:35.860Z,20.70
2022-11-02T15:10:08.416Z,20.80
2022-11-02T15:12:39.684Z,20.60
2022-11-02T15:15:30.722Z,20.50
2022-11-02T15:18:22.567Z,20.60
2022-11-02T15:21:27.271Z,20.70
2022-11-02T15:24:16.615Z,20.50
2022-11-02T15:26:57.300Z,20.30
2022-11-02T15:29:38.486Z,19.70
2022-11-02T15:32:12.792Z,19.60
2022-11-02T15:34:43.875Z,19.50
2022-11-02T15:37:17.663Z,19.40
2022-11-02T15:39:50.038Z,19.30
2022-11-02T15:42:29.222Z,19.10
2022-11-02T15:45:42.604Z,19.00
2022-11-02T15:48:20.054Z,18.90
2022-11-02T15:50:59.364Z,18.80
2022-11-02T15:53:41.100Z,18.80
2022-11-02T15:56:33.865Z,18.80
2022-11-02T15:59:42.737Z,18.60
2022-11-02T16:02:19.621Z,18.70
2022-11-02T16:04:49.226Z,18.70
2022-11-02T16:07:18.798Z,18.60
2022-11-02T16:09:48.008Z,18.90
2022-11-02T16:12:18.768Z,19.10
2022-11-02T16:14:55.840Z,19.20
2022-11-02T16:17:25.697Z,19.30
2022-11-02T16:19:54.555Z,19.30
2022-11-02T16:22:26.767Z,19.10
2022-11-02T16:24:55.428Z,18.70
2022-11-02T16:27:24.073Z,18.30
2022-11-02T16:29:53.504Z,18.20
2022-11-02T16:32:22.271Z,18.00
2022-11-02T16:34:50.235Z,17.80
2022-11-02T16:37:20.037Z,17.60
2022-11-02T16:39:48.470Z,17.70
2022-11-02T16:42:18.811Z,17.60
2022-11-02T16:44:57.134Z,17.70
2022-11-02T16:47:42.654Z,17.90
2022-11-02T16:50:21.888Z,18.00
2022-11-02T16:52:56.350Z,18.10
2022-11-02T16:55:38.601Z,18.30
2022-11-02T16:58:09.266Z,18.10
2022-11-02T17:00:38.841Z,18.10
2022-11-02T17:03:14.776Z,18.00
2022-11-02T17:05:45.065Z,18.00
2022-11-02T17:08:28.546Z,17.90
2022-11-02T17:10:58.624Z,17.70
2022-11-02T17:13:27.703Z,17.60
2022-11-02T17:16:03.796Z,17.70
2022-11-02T17:18:31.700Z,17.80
2022-11-02T17:21:25.274Z,17.70
2022-11-02T17:23:53.851Z,17.60
2022-11-02T17:26:31.296Z,17.70
2022-11-02T17:29:00.449Z,17.70
2022-11-02T17:31:34.927Z,17.60
2022-11-02T17:34:11.592Z,17.50
2022-11-02T17:36:43.432Z,16.80
2022-11-02T17:39:13.164Z,16.40
2022-11-02T17:41:58.783Z,16.40
2022-11-02T17:44:26.632Z,16.70
2022-11-02T17:46:56.743Z,16.80
2022-11-02T17:49:24.591Z,16.90
2022-11-02T17:51:52.466Z,16.90
2022-11-02T17:54:20.358Z,17.00
2022-11-02T17:56:48.202Z,16.90
2022-11-02T17:59:16.058Z,16.90
2022-11-02T18:01:44.081Z,17.10
2022-11-02T18:04:13.397Z,17.20
2022-11-02T18:06:41.272Z,17.20
2022-11-02T18:09:13.770Z,17.30
2022-11-02T18:11:42.096Z,17.40
2022-11-02T18:14:15.594Z,17.50
2022-11-02T18:16:44.175Z,17.50
2022-11-02T18:19:13.744Z,17.50
2022-11-02T18:21:41.606Z,17.70
2022-11-02T18:24:10.878Z,17.80
2022-11-02T18:26:41.405Z,17.80
2022-11-02T18:29:12.210Z,17.90
2022-11-02T18:31:40.127Z,17.60
2022-11-02T18:34:08.012Z,17.70
2022-11-02T18:36:39.660Z,17.80
2022-11-02T18:39:07.699Z,17.80
2022-11-02T18:41:36.972Z,17.70
2022-11-02T18:44:11.966Z,17.60
2022-11-02T18:46:42.695Z,17.70
2022-11-02T18:49:10.721Z,17.80
2022-11-02T18:51:42.905Z,17.80
2022-11-02T18:54:10.931Z,17.80
2022-11-02T18:56:38.952Z,17.80
2022-11-02T18:59:06.836Z,17.50
2022-11-02T19:01:34.839Z,17.30
2022-11-02T19:04:03.437Z,17.30
2022-11-02T19:06:50.358Z,17.20
2022-11-02T19:09:22.988Z,17.10
2022-11-02T19:11:53.885Z,17.20
2022-11-02T19:14:23.394Z,17.20
2022-11-02T19:16:51.329Z,17.20
2022-11-02T19:19:19.181Z,17.00
2022-11-02T19:21:47.068Z,16.80
2022-11-02T19:24:14.909Z,16.80
2022-11-02T19:26:44.168Z,16.90
2022-11-02T19:29:12.047Z,16.90
2022-11-02T19:31:39.939Z,17.10
2022-11-02T19:34:07.998Z,17.00
2022-11-02T19:36:35.961Z,17.10
2022-11-02T19:39:04.574Z,17.10
2022-11-02T19:41:32.481Z,17.10
2022-11-02T19:44:01.808Z,17.10
2022-11-02T19:46:29.765Z,17.00
2022-11-02T19:48:58.287Z,17.20
2022-11-02T19:51:28.230Z,17.30
2022-11-02T19:53:58.189Z,17.40
2022-11-02T19:56:27.533Z,17.30
2022-11-02T19:58:56.296Z,17.30
2022-11-02T20:01:27.578Z,17.20
2022-11-02T20:03:56.610Z,16.90
2022-11-02T20:06:25.774Z,16.90
2022-11-02T20:08:54.991Z,17.20
2022-11-02T20:11:24.133Z,17.40
2022-11-02T20:13:52.112Z,17.20
2022-11-02T20:16:21.362Z,17.10
2022-11-02T20:18:52.401Z,17.00
2022-11-02T20:21:23.050Z,16.90
2022-11-02T20:23:52.910Z,16.90
2022-11-02T20:26:23.022Z,17.00
2022-11-02T20:28:51.521Z,17.00
2022-11-02T20:31:20.985Z,17.10
2022-11-02T20:33:51.138Z,17.20
2022-11-02T20:36:19.121Z,17.10
2022-11-02T20:38:47.430Z,17.20
2022-11-02T20:41:17.063Z,17.40
2022-11-02T20:43:46.503Z,17.40
2022-11-02T20:46:36.579Z,17.60
2022-11-02T20:49:21.209Z,17.50
2022-11-02T20:51:54.256Z,17.50
2022-11-02T20:54:22.323Z,17.60
2022-11-02T20:56:51.082Z,17.60
2022-11-02T20:59:19.386Z,17.80
2022-11-02T21:01:47.437Z,17.90
2022-11-02T21:04:20.705Z,18.10
2022-11-02T21:06:50.012Z,18.20
2022-11-02T21:09:17.912Z,18.20
2022-11-02T21:12:03.335Z,18.30
2022-11-02T21:14:31.189Z,18.50
2022-11-02T21:16:59.113Z,18.50
2022-11-02T21:19:28.306Z,18.50
2022-11-02T21:21:59.663Z,18.60
2022-11-02T21:24:28.312Z,18.50
2022-11-02T21:26:56.365Z,18.30
2022-11-02T21:29:24.257Z,18.10
2022-11-02T21:31:52.105Z,18.10
2022-11-02T21:34:19.980Z,18.00
2022-11-02T21:36:49.872Z,18.10
2022-11-02T21:39:17.844Z,18.10
2022-11-02T21:41:45.782Z,17.90
2022-11-02T21:44:13.630Z,17.90
2022-11-02T21:46:41.979Z,17.90
2022-11-02T21:49:10.041Z,17.80
2022-11-02T21:51:38.484Z,17.70
2022-11-02T21:54:07.862Z,17.40
2022-11-02T21:56:36.847Z,17.00
2022-11-02T21:59:05.903Z,17.20
2022-11-02T22:01:48.104Z,17.20
2022-11-02T22:04:19.457Z,17.30
2022-11-02T22:06:47.337Z,17.40
2022-11-02T22:09:16.589Z,17.60
2022-11-02T22:11:44.973Z,17.70
2022-11-02T22:14:12.510Z,17.60
2022-11-02T22:16:42.465Z,17.60
2022-11-02T22:19:11.683Z,17.70
2022-11-02T22:21:42.896Z,17.70
2022-11-02T22:24:11.588Z,17.70
2022-11-02T22:26:41.363Z,17.60
2022-11-02T22:29:09.700Z,17.50
2022-11-02T22:31:39.475Z,17.40
2022-11-02T22:34:08.960Z,17.30
2022-11-02T22:36:37.730Z,17.30
2022-11-02T22:39:06.467Z,17.20
2022-11-02T22:41:36.560Z,17.20
2022-11-02T22:44:07.599Z,17.20
2022-11-02T22:46:37.711Z,17.30
2022-11-02T22:49:06.119Z,17.30
2022-11-02T22:51:36.163Z,17.40
2022-11-02T22:54:05.784Z,17.40
2022-11-02T22:56:34.576Z,17.50
2022-11-02T22:59:02.862Z,17.50
2022-11-02T23:01:33.241Z,17.30
2022-11-02T23:04:02.115Z,16.90
2022-11-02T23:06:30.162Z,16.80
2022-11-02T23:08:59.567Z,16.80
2022-11-02T23:11:29.468Z,16.70
2022-11-02T23:13:59.047Z,16.60
2022-11-02T23:16:28.916Z,16.80
2022-11-02T23:19:20.623Z,17.10
2022-11-02T23:22:08.966Z,17.20
2022-11-02T23:24:54.225Z,17.30
2022-11-02T23:27:22.110Z,17.50
2022-11-02T23:30:03.873Z,17.60
2022-11-02T23:32:31.937Z,17.60
2022-11-02T23:35:18.638Z,17.40
2022-11-02T23:37:47.452Z,17.40
2022-11-02T23:40:18.905Z,17.10
2022-11-02T23:42:46.768Z,17.20
2022-11-02T23:45:14.668Z,17.20
2022-11-02T23:48:00.247Z,17.20
2022-11-02T23:50:49.757Z,17.50
2022-11-02T23:53:36.714Z,17.20
2022-11-02T23:56:23.007Z,17.40
2022-11-02T23:59:06.359Z,17.50
